createdAt,value
2022-09-23T00:00:44.129Z,1.15
2022-09-23T00:03:11.236Z,0.90
2022-09-23T00:05:38.386Z,1.10
2022-09-23T00:08:10.908Z,1.30
2022-09-23T00:10:39.330Z,0.80
2022-09-23T00:13:06.450Z,1.00
2022-09-23T00:15:38.619Z,1.10
2022-09-23T00:18:05.300Z,1.00
2022-09-23T00:20:34.777Z,1.00
2022-09-23T00:23:01.447Z,0.93
2022-09-23T00:25:29.780Z,1.02
2022-09-23T00:27:56.781Z,1.00
2022-09-23T00:30:23.759Z,1.30
2022-09-23T00:32:50.398Z,1.08
2022-09-23T00:35:17.195Z,1.00
2022-09-23T00:37:43.732Z,1.00
2022-09-23T00:40:10.729Z,1.15
2022-09-23T00:42:37.336Z,1.08
2022-09-23T00:45:04.399Z,1.00
2022-09-23T00:47:32.491Z,1.00
2022-09-23T00:50:16.649Z,0.90
2022-09-23T00:52:43.599Z,0.82
2022-09-23T00:55:49.575Z,1.00
2022-09-23T00:58:19.052Z,0.95
2022-09-23T01:00:46.890Z,1.10
2022-09-23T01:03:14.201Z,0.80
2022-09-23T01:05:41.873Z,0.90
2022-09-23T01:08:10.510Z,1.00
2022-09-23T01:11:14.748Z,1.10
2022-09-23T01:16:23.648Z,1.00
2022-09-23T01:19:00.640Z,1.00
2022-09-23T01:21:42.444Z,0.93
2022-09-23T01:24:24.156Z,1.10
2022-09-23T01:27:13.773Z,0.90
2022-09-23T01:30:01.785Z,1.35
2022-09-23T01:32:54.247Z,1.02
2022-09-23T01:35:35.289Z,1.00
2022-09-23T01:38:22.965Z,0.85
2022-09-23T01:41:00.044Z,1.10
2022-09-23T01:43:51.161Z,0.90
2022-09-23T01:46:21.689Z,1.00
2022-09-23T01:49:03.339Z,1.10
2022-09-23T01:51:34.448Z,1.02
2022-09-23T01:54:25.712Z,0.77
2022-09-23T01:56:53.567Z,1.10
2022-09-23T01:59:35.524Z,1.10
2022-09-23T02:02:08.240Z,1.15
2022-09-23T02:04:40.692Z,1.17
2022-09-23T02:07:15.191Z,0.90
2022-09-23T02:09:44.149Z,1.05
2022-09-23T02:12:15.206Z,0.80
2022-09-23T02:14:48.996Z,1.13
2022-09-23T02:17:18.629Z,1.10
2022-09-23T02:19:55.599Z,1.00
2022-09-23T02:22:41.396Z,1.17
2022-09-23T02:25:09.797Z,1.08
2022-09-23T02:27:56.029Z,1.15
2022-09-23T02:30:29.616Z,0.90
2022-09-23T02:33:08.575Z,0.80
2022-09-23T02:35:53.685Z,0.90
2022-09-23T02:38:39.351Z,1.00
2022-09-23T02:41:20.992Z,0.90
2022-09-23T02:43:56.557Z,1.02
2022-09-23T02:46:23.360Z,1.20
2022-09-23T02:48:56.702Z,0.98
2022-09-23T02:51:28.833Z,1.08
2022-09-23T02:53:58.895Z,1.10
2022-09-23T02:56:25.478Z,1.10
2022-09-23T02:58:53.568Z,1.38
2022-09-23T03:01:32.992Z,1.20
2022-09-23T03:04:17.261Z,1.17
2022-09-23T03:06:53.407Z,1.10
2022-09-23T03:09:33.669Z,1.05
2022-09-23T03:12:41.732Z,1.00
2022-09-23T03:15:30.116Z,1.00
2022-09-23T03:18:05.596Z,0.85
2022-09-23T03:20:36.539Z,1.10
2022-09-23T03:23:07.242Z,1.13
2022-09-23T03:25:37.749Z,1.20
2022-09-23T03:28:05.081Z,1.25
2022-09-23T03:30:35.426Z,1.23
2022-09-23T03:33:04.197Z,1.00
2022-09-23T03:35:33.137Z,0.90
2022-09-23T03:38:17.271Z,1.00
2022-09-23T03:40:47.778Z,1.08
2022-09-23T03:43:14.532Z,1.00
2022-09-23T03:45:42.651Z,1.30
2022-09-23T03:48:09.348Z,1.20
2022-09-23T03:50:36.389Z,1.20
2022-09-23T03:53:02.935Z,1.10
2022-09-23T03:55:29.477Z,1.10
2022-09-23T03:57:56.000Z,1.20
2022-09-23T04:00:22.591Z,0.90
2022-09-23T04:02:49.845Z,1.05
2022-09-23T04:05:16.584Z,1.35
2022-09-23T04:07:43.144Z,1.17
2022-09-23T04:10:10.373Z,1.20
2022-09-23T04:12:37.527Z,1.17
2022-09-23T04:15:04.576Z,1.42
2022-09-23T04:17:31.161Z,1.00
2022-09-23T04:19:57.722Z,1.50
2022-09-23T04:22:24.334Z,1.20
2022-09-23T04:24:50.893Z,1.40
2022-09-23T04:27:17.423Z,1.33
2022-09-23T04:29:44.131Z,1.30
2022-09-23T04:32:10.825Z,1.27
2022-09-23T04:34:37.436Z,1.20
2022-09-23T04:37:03.998Z,1.40
2022-09-23T04:39:30.588Z,1.23
2022-09-23T04:41:57.169Z,1.17
2022-09-23T04:44:24.117Z,1.50
2022-09-23T04:46:51.696Z,1.55
2022-09-23T04:49:18.493Z,1.20
2022-09-23T04:51:45.608Z,1.65
2022-09-23T04:54:12.703Z,1.42
2022-09-23T04:56:39.879Z,1.50
2022-09-23T04:59:07.347Z,1.20
2022-09-23T05:01:35.153Z,1.30
2022-09-23T05:04:05.413Z,1.25
2022-09-23T05:06:35.365Z,1.38
2022-09-23T05:09:06.868Z,1.25
2022-09-23T05:11:34.717Z,1.63
2022-09-23T05:14:01.337Z,1.50
2022-09-23T05:16:27.986Z,1.15
2022-09-23T05:18:54.699Z,1.48
2022-09-23T05:21:27.488Z,1.50
2022-09-23T05:23:56.606Z,1.70
2022-09-23T05:26:27.691Z,1.33
2022-09-23T05:28:54.696Z,1.35
2022-09-23T05:31:23.454Z,1.52
2022-09-23T05:33:55.867Z,1.48
2022-09-23T05:36:23.091Z,1.35
2022-09-23T05:38:51.287Z,1.35
2022-09-23T05:41:20.849Z,1.60
2022-09-23T05:43:47.500Z,1.70
2022-09-23T05:46:23.435Z,1.60
2022-09-23T05:48:50.641Z,1.50
2022-09-23T05:51:18.989Z,1.42
2022-09-23T05:53:46.249Z,1.27
2022-09-23T05:56:14.309Z,1.27
2022-09-23T05:58:41.086Z,1.30
2022-09-23T06:01:21.087Z,1.40
2022-09-23T06:03:48.868Z,1.70
2022-09-23T06:06:18.035Z,1.60
2022-09-23T06:08:45.816Z,1.42
2022-09-23T06:11:12.506Z,1.50
2022-09-23T06:13:39.717Z,1.40
2022-09-23T06:16:10.087Z,1.35
2022-09-23T06:18:39.244Z,1.38
2022-09-23T06:21:06.283Z,1.13
2022-09-23T06:23:33.487Z,1.38
2022-09-23T06:26:01.920Z,1.20
2022-09-23T06:28:33.001Z,1.50
2022-09-23T06:31:00.724Z,1.13
2022-09-23T06:33:35.676Z,1.40
2022-09-23T06:36:07.581Z,1.67
2022-09-23T06:38:34.627Z,1.35
2022-09-23T06:41:03.234Z,1.38
2022-09-23T06:43:30.497Z,1.40
2022-09-23T06:46:00.981Z,1.40
2022-09-23T06:48:28.533Z,1.55
2022-09-23T06:50:58.829Z,1.52
2022-09-23T06:53:25.613Z,1.90
2022-09-23T06:55:59.691Z,1.70
2022-09-23T06:58:26.905Z,1.75
2022-09-23T07:00:54.091Z,1.80
2022-09-23T07:03:20.969Z,2.05
2022-09-23T07:05:47.582Z,2.03
2022-09-23T07:08:14.122Z,1.48
2022-09-23T07:10:40.884Z,1.85
2022-09-23T07:13:07.443Z,1.83
2022-09-23T07:15:34.096Z,1.88
2022-09-23T07:18:00.859Z,1.70
2022-09-23T07:20:27.410Z,1.90
2022-09-23T07:22:54.161Z,1.95
2022-09-23T07:25:21.064Z,1.90
2022-09-23T07:27:48.956Z,1.85
2022-09-23T07:30:23.963Z,1.80
2022-09-23T07:32:52.202Z,2.10
2022-09-23T07:35:19.291Z,1.88
2022-09-23T07:37:46.152Z,1.90
2022-09-23T07:40:12.769Z,1.73
2022-09-23T07:42:40.897Z,1.50
2022-09-23T07:45:09.085Z,1.70
2022-09-23T07:47:35.854Z,1.60
2022-09-23T07:50:02.381Z,1.85
2022-09-23T07:52:28.918Z,2.20
2022-09-23T07:54:55.509Z,2.42
2022-09-23T07:57:22.091Z,1.80
2022-09-23T07:59:48.641Z,1.88
2022-09-23T08:02:16.433Z,1.70
2022-09-23T08:04:43.052Z,1.85
2022-09-23T08:07:12.545Z,1.75
2022-09-23T08:09:41.741Z,1.83
2022-09-23T08:12:15.202Z,1.70
2022-09-23T08:14:42.929Z,2.10
2022-09-23T08:17:09.580Z,1.80
2022-09-23T08:19:36.140Z,1.88
2022-09-23T08:22:02.683Z,2.03
2022-09-23T08:24:32.258Z,1.60
2022-09-23T08:26:59.079Z,1.70
2022-09-23T08:29:26.344Z,2.00
2022-09-23T08:31:53.605Z,1.92
2022-09-23T08:34:21.369Z,1.90
2022-09-23T08:36:48.666Z,1.83
2022-09-23T08:39:17.056Z,1.80
2022-09-23T08:42:11.765Z,1.90
2022-09-23T08:44:57.529Z,1.65
2022-09-23T08:47:31.211Z,1.88
2022-09-23T08:50:06.791Z,1.70
2022-09-23T08:52:43.032Z,1.80
2022-09-23T08:55:12.592Z,1.50
2022-09-23T08:58:24.464Z,1.60
2022-09-23T09:01:09.633Z,1.60
2022-09-23T09:03:41.204Z,1.90
2022-09-23T09:06:13.669Z,1.70
2022-09-23T09:08:40.230Z,1.48
2022-09-23T09:11:06.929Z,1.73
2022-09-23T09:13:35.833Z,1.50
2022-09-23T09:16:14.434Z,1.42
2022-09-23T09:19:01.281Z,1.80
2022-09-23T09:21:38.705Z,1.75
2022-09-23T09:24:14.294Z,1.60
2022-09-23T09:26:40.853Z,1.60
2022-09-23T09:29:36.778Z,1.50
2022-09-23T09:32:14.304Z,1.83
2022-09-23T09:34:45.388Z,1.63
2022-09-23T09:37:33.672Z,1.40
2022-09-23T09:40:00.399Z,1.90
2022-09-23T09:42:39.982Z,1.63
2022-09-23T09:45:45.459Z,1.42
2022-09-23T09:48:17.713Z,1.38
2022-09-23T09:50:44.283Z,1.40
2022-09-23T09:53:25.648Z,1.80
2022-09-23T09:56:09.227Z,1.83
2022-09-23T09:58:54.178Z,1.50
2022-09-23T10:01:25.266Z,1.50
2022-09-23T10:03:59.163Z,1.60
2022-09-23T10:06:28.844Z,1.60
2022-09-23T10:09:01.686Z,1.67
2022-09-23T10:11:29.383Z,1.50
2022-09-23T10:14:06.263Z,1.52
2022-09-23T10:16:37.247Z,1.48
2022-09-23T10:19:04.620Z,1.48
2022-09-23T10:21:36.342Z,1.58
2022-09-23T10:24:05.785Z,1.38
2022-09-23T10:26:34.845Z,1.30
2022-09-23T10:29:03.936Z,1.33
2022-09-23T10:31:35.146Z,1.60
2022-09-23T10:34:27.931Z,1.38
2022-09-23T10:37:12.632Z,1.70
2022-09-23T10:39:58.612Z,1.80
2022-09-23T10:43:04.011Z,1.50
2022-09-23T10:45:53.274Z,1.35
2022-09-23T10:48:25.848Z,1.63
2022-09-23T10:50:53.657Z,1.90
2022-09-23T10:53:47.353Z,1.75
2022-09-23T10:56:16.676Z,1.67
2022-09-23T10:58:55.090Z,1.55
2022-09-23T11:01:41.294Z,1.10
2022-09-23T11:04:52.567Z,1.45
2022-09-23T11:07:40.710Z,1.45
2022-09-23T11:10:45.353Z,1.50
2022-09-23T11:13:24.700Z,1.50
2022-09-23T11:16:13.459Z,1.40
2022-09-23T11:18:51.737Z,1.58
2022-09-23T11:21:45.808Z,1.55
2022-09-23T11:24:52.144Z,1.58
2022-09-23T11:27:27.780Z,1.50
2022-09-23T11:30:06.545Z,1.40
2022-09-23T11:32:55.028Z,1.30
2022-09-23T11:35:28.008Z,1.30
2022-09-23T11:38:12.051Z,1.60
2022-09-23T11:40:43.892Z,1.30
2022-09-23T11:43:18.583Z,1.52
2022-09-23T11:45:50.063Z,1.40
2022-09-23T11:48:17.434Z,1.50
2022-09-23T11:50:50.517Z,1.55
2022-09-23T11:53:37.726Z,1.52
2022-09-23T11:56:12.182Z,1.45
2022-09-23T11:58:45.824Z,1.60
2022-09-23T12:01:31.257Z,1.40
2022-09-23T12:04:19.266Z,1.35
2022-09-23T12:06:50.092Z,1.40
2022-09-23T12:09:41.006Z,1.60
2022-09-23T12:12:27.243Z,1.60
2022-09-23T12:14:53.863Z,1.58
2022-09-23T12:17:54.770Z,1.55
2022-09-23T12:20:35.102Z,1.40
2022-09-23T12:23:05.936Z,1.33
2022-09-23T12:25:53.241Z,1.80
2022-09-23T12:28:24.570Z,1.60
2022-09-23T12:30:54.256Z,2.17
2022-09-23T12:33:26.472Z,1.80
2022-09-23T12:35:54.702Z,2.10
2022-09-23T12:38:40.431Z,1.80
2022-09-23T12:41:36.578Z,2.00
2022-09-23T12:44:14.777Z,1.50
2022-09-23T12:46:42.796Z,1.60
2022-09-23T12:49:24.071Z,1.58
2022-09-23T12:52:13.720Z,1.60
2022-09-23T12:54:41.761Z,1.38
2022-09-23T12:57:12.140Z,1.70
2022-09-23T13:00:12.592Z,1.10
2022-09-23T13:02:41.965Z,1.60
2022-09-23T13:05:35.693Z,1.45
2022-09-23T13:08:12.800Z,1.48
2022-09-23T13:10:49.710Z,1.60
2022-09-23T13:13:24.943Z,1.40
2022-09-23T13:15:52.164Z,1.58
2022-09-23T13:18:18.613Z,1.50
2022-09-23T13:20:47.078Z,1.40
2022-09-23T13:23:22.443Z,1.30
2022-09-23T13:25:51.537Z,1.38
2022-09-23T13:28:58.529Z,1.33
2022-09-23T13:31:25.123Z,1.30
2022-09-23T13:33:56.725Z,1.70
2022-09-23T13:36:23.491Z,1.42
2022-09-23T13:38:50.038Z,1.30
2022-09-23T13:41:20.805Z,1.60
2022-09-23T13:43:51.082Z,1.55
2022-09-23T13:46:22.690Z,1.50
2022-09-23T13:48:52.286Z,1.50
2022-09-23T13:51:30.646Z,1.58
2022-09-23T13:53:59.501Z,1.50
2022-09-23T13:56:31.185Z,1.60
2022-09-23T13:59:26.977Z,1.02
2022-09-23T14:02:27.523Z,1.60
2022-09-23T14:04:58.607Z,1.60
2022-09-23T14:07:25.298Z,1.60
2022-09-23T14:09:54.914Z,1.42
2022-09-23T14:12:24.729Z,1.60
2022-09-23T14:14:51.887Z,1.67
2022-09-23T14:17:20.843Z,1.42
2022-09-23T14:19:47.662Z,1.38
2022-09-23T14:22:25.496Z,1.52
2022-09-23T14:24:52.696Z,1.48
2022-09-23T14:27:33.154Z,1.77
2022-09-23T14:30:02.245Z,1.80
2022-09-23T14:32:29.848Z,1.70
2022-09-23T14:35:05.428Z,1.30
2022-09-23T14:37:56.371Z,1.92
2022-09-23T14:40:32.705Z,1.60
2022-09-23T14:43:02.344Z,1.65
2022-09-23T14:45:33.261Z,1.52
2022-09-23T14:48:02.080Z,1.70
2022-09-23T14:50:48.551Z,1.70
2022-09-23T14:53:24.066Z,1.33
2022-09-23T14:55:57.446Z,1.40
2022-09-23T15:00:59.568Z,1.40
2022-09-23T15:03:30.303Z,1.65
2022-09-23T15:06:01.099Z,1.15
2022-09-23T15:08:29.676Z,1.33
2022-09-23T15:10:57.320Z,1.38
2022-09-23T15:13:31.385Z,1.50
2022-09-23T15:16:00.168Z,1.70
2022-09-23T15:18:29.167Z,1.55
2022-09-23T15:20:58.033Z,1.50
2022-09-23T15:23:43.779Z,1.88
2022-09-23T15:26:40.861Z,1.88
2022-09-23T15:29:10.467Z,1.77
2022-09-23T15:31:37.726Z,2.10
2022-09-23T15:34:10.046Z,1.83
2022-09-23T15:36:38.283Z,2.17
2022-09-23T15:39:06.683Z,1.58
2022-09-23T15:41:33.611Z,1.98
2022-09-23T15:44:29.566Z,2.15
2022-09-23T15:46:59.192Z,1.80
2022-09-23T15:49:39.173Z,1.77
2022-09-23T15:52:08.229Z,1.70
2022-09-23T15:54:34.785Z,1.67
2022-09-23T15:57:01.394Z,1.48
2022-09-23T15:59:28.823Z,1.40
2022-09-23T16:01:56.554Z,1.40
2022-09-23T16:04:23.697Z,1.70
2022-09-23T16:06:50.314Z,1.45
2022-09-23T16:09:16.905Z,1.40
2022-09-23T16:11:47.917Z,1.48
2022-09-23T16:14:16.201Z,1.70
2022-09-23T16:16:45.111Z,1.27
2022-09-23T16:19:12.419Z,1.45
2022-09-23T16:21:40.859Z,1.30
2022-09-23T16:24:17.973Z,1.30
2022-09-23T16:26:46.582Z,1.45
2022-09-23T16:29:13.485Z,1.40
2022-09-23T16:31:40.216Z,1.50
2022-09-23T16:34:06.815Z,1.30
2022-09-23T16:36:35.932Z,1.42
2022-09-23T16:39:04.694Z,1.52
2022-09-23T16:41:31.715Z,1.45
2022-09-23T16:44:00.621Z,1.60
2022-09-23T16:46:27.952Z,1.38
2022-09-23T16:48:55.617Z,1.58
2022-09-23T16:51:26.472Z,1.40
2022-09-23T16:53:53.848Z,1.30
2022-09-23T16:56:25.840Z,1.15
2022-09-23T16:58:55.284Z,1.50
2022-09-23T17:01:42.958Z,1.38
2022-09-23T17:04:10.668Z,1.30
2022-09-23T17:06:43.243Z,1.45
2022-09-23T17:09:11.049Z,1.50
2022-09-23T17:11:38.176Z,1.50
2022-09-23T17:14:05.659Z,1.70
2022-09-23T17:16:33.673Z,1.35
2022-09-23T17:19:05.357Z,1.50
2022-09-23T17:21:31.938Z,1.58
2022-09-23T17:23:58.468Z,1.50
2022-09-23T17:26:26.344Z,1.50
2022-09-23T17:28:57.053Z,1.63
2022-09-23T17:31:24.705Z,1.70
2022-09-23T17:33:52.678Z,1.38
2022-09-23T17:36:20.181Z,1.60
2022-09-23T17:38:48.190Z,1.50
2022-09-23T17:41:17.265Z,1.50
2022-09-23T17:43:45.357Z,1.50
2022-09-23T17:46:18.690Z,1.45
2022-09-23T17:51:14.241Z,1.45
2022-09-23T17:53:42.184Z,1.50
2022-09-23T17:56:20.325Z,1.52
2022-09-23T17:58:48.396Z,1.70
2022-09-23T18:01:25.787Z,1.50
2022-09-23T18:03:56.593Z,1.45
2022-09-23T18:06:25.368Z,1.30
2022-09-23T18:08:52.530Z,1.45
2022-09-23T18:11:24.136Z,1.45
2022-09-23T18:13:56.345Z,1.40
2022-09-23T18:16:25.435Z,1.73
2022-09-23T18:18:57.217Z,1.77
2022-09-23T18:21:26.064Z,1.35
2022-09-23T18:23:52.692Z,1.63
2022-09-23T18:26:23.986Z,1.30
2022-09-23T18:28:53.615Z,1.65
2022-09-23T18:31:20.441Z,1.70
2022-09-23T18:33:51.396Z,1.73
2022-09-23T18:36:19.141Z,1.52
2022-09-23T18:38:46.143Z,1.30
2022-09-23T18:41:13.032Z,1.45
2022-09-23T18:43:43.116Z,1.40
2022-09-23T18:46:11.691Z,1.25
2022-09-23T18:48:57.086Z,1.45
2022-09-23T18:51:26.257Z,1.45
2022-09-23T18:53:57.610Z,1.50
2022-09-23T18:56:29.625Z,1.88
2022-09-23T18:58:56.487Z,1.52
2022-09-23T19:01:23.726Z,1.88
2022-09-23T19:03:56.904Z,1.60
2022-09-23T19:06:24.237Z,1.30
2022-09-23T19:08:52.968Z,1.48
2022-09-23T19:11:19.984Z,1.40
2022-09-23T19:13:46.581Z,1.40
2022-09-23T19:16:16.659Z,1.30
2022-09-23T19:18:46.391Z,1.65
2022-09-23T19:21:14.190Z,1.38
2022-09-23T19:23:47.524Z,1.52
2022-09-23T19:26:16.467Z,1.50
2022-09-23T19:28:50.966Z,1.70
2022-09-23T19:31:23.129Z,1.55
2022-09-23T19:34:01.288Z,1.40
2022-09-23T19:36:30.885Z,1.50
2022-09-23T19:39:03.200Z,1.20
2022-09-23T19:41:35.336Z,1.35
2022-09-23T19:44:03.368Z,1.80
2022-09-23T19:46:31.193Z,1.73
2022-09-23T19:48:58.172Z,1.60
2022-09-23T19:51:24.786Z,1.25
2022-09-23T19:53:51.308Z,1.55
2022-09-23T19:56:18.197Z,1.42
2022-09-23T19:58:52.214Z,1.35
2022-09-23T20:01:19.348Z,1.48
2022-09-23T20:03:47.127Z,1.73
2022-09-23T20:06:14.365Z,1.48
2022-09-23T20:08:41.415Z,1.52
2022-09-23T20:11:16.529Z,1.60
2022-09-23T20:13:45.253Z,1.52
2022-09-23T20:16:17.868Z,1.63
2022-09-23T20:18:45.968Z,1.47
2022-09-23T20:21:14.685Z,1.50
2022-09-23T20:23:41.797Z,1.35
2022-09-23T20:26:27.404Z,1.52
2022-09-23T20:28:53.959Z,1.50
2022-09-23T20:31:22.138Z,1.70
2022-09-23T20:33:53.708Z,1.55
2022-09-23T20:36:20.281Z,1.58
2022-09-23T20:38:46.824Z,1.55
2022-09-23T20:41:14.572Z,1.73
2022-09-23T20:43:41.684Z,1.30
2022-09-23T20:46:09.186Z,1.80
2022-09-23T20:48:35.762Z,1.80
2022-09-23T20:51:03.572Z,1.60
2022-09-23T20:53:31.159Z,1.40
2022-09-23T20:55:58.870Z,1.70
2022-09-23T20:58:30.226Z,1.60
2022-09-23T21:01:14.727Z,2.22
2022-09-23T21:03:43.758Z,1.60
2022-09-23T21:06:11.508Z,1.50
2022-09-23T21:08:38.111Z,1.70
2022-09-23T21:11:08.004Z,1.60
2022-09-23T21:13:35.312Z,1.80
2022-09-23T21:16:11.554Z,1.90
2022-09-23T21:18:38.570Z,2.00
2022-09-23T21:21:06.364Z,1.92
2022-09-23T21:23:35.411Z,1.77
2022-09-23T21:26:09.811Z,1.90
2022-09-23T21:28:38.321Z,1.80
2022-09-23T21:31:07.735Z,1.83
2022-09-23T21:33:36.698Z,1.70
2022-09-23T21:36:05.059Z,1.90
2022-09-23T21:38:34.771Z,1.80
2022-09-23T21:41:02.968Z,1.80
2022-09-23T21:43:33.285Z,1.85
2022-09-23T21:46:02.314Z,1.90
2022-09-23T21:48:30.216Z,1.90
2022-09-23T21:50:58.490Z,1.90
2022-09-23T21:53:25.880Z,1.70
2022-09-23T21:55:52.554Z,2.00
2022-09-23T21:58:19.139Z,1.88
2022-09-23T22:00:45.966Z,1.80
2022-09-23T22:03:12.569Z,1.67
2022-09-23T22:05:41.787Z,1.75
2022-09-23T22:08:09.133Z,2.00
2022-09-23T22:10:36.845Z,1.90
2022-09-23T22:13:03.937Z,1.92
2022-09-23T22:15:35.698Z,1.70
2022-09-23T22:18:02.505Z,1.77
2022-09-23T22:20:29.207Z,1.63
2022-09-23T22:22:55.960Z,1.80
2022-09-23T22:25:22.536Z,1.58
2022-09-23T22:28:07.487Z,1.58
2022-09-23T22:30:52.510Z,1.83
2022-09-23T22:33:19.204Z,1.70
2022-09-23T22:35:45.799Z,1.88
2022-09-23T22:38:12.533Z,1.90
2022-09-23T22:40:42.774Z,1.60
2022-09-23T22:43:09.316Z,1.70
2022-09-23T22:45:37.594Z,1.98
2022-09-23T22:48:04.489Z,1.85
2022-09-23T22:50:31.033Z,1.70
2022-09-23T22:52:57.655Z,2.10
2022-09-23T22:55:25.339Z,1.83
2022-09-23T22:57:51.880Z,1.85
2022-09-23T23:00:18.467Z,2.00
2022-09-23T23:02:44.993Z,1.83
2022-09-23T23:05:11.628Z,2.00
2022-09-23T23:07:38.259Z,1.60
2022-09-23T23:10:10.352Z,1.85
2022-09-23T23:12:37.219Z,1.70
2022-09-23T23:15:03.882Z,2.13
2022-09-23T23:17:30.429Z,1.92
2022-09-23T23:19:57.874Z,2.13
2022-09-23T23:22:27.256Z,1.95
2022-09-23T23:24:54.678Z,1.73
2022-09-23T23:27:21.233Z,1.88
2022-09-23T23:29:47.794Z,1.73
2022-09-23T23:32:15.328Z,1.67
2022-09-23T23:34:42.108Z,2.17
2022-09-23T23:37:08.647Z,1.90
2022-09-23T23:39:35.236Z,2.30
2022-09-23T23:42:01.793Z,1.80
2022-09-23T23:44:31.101Z,1.88
2022-09-23T23:46:57.696Z,2.03
2022-09-23T23:49:24.362Z,2.10
2022-09-23T23:51:50.954Z,2.25
2022-09-23T23:54:17.527Z,2.20
2022-09-23T23:56:44.100Z,2.03
2022-09-23T23:59:11.093Z,2.10
